NFTF/TBU METAR and TAF weather

Enter ICAO airport designator
Station Type Date Time Source
NFTF METAR 2023/02/05 11:00 UTC NOAA

NFTF 051100Z 27005KT 9999 SCT016TCU BKN120 27/24 Q1007 RMK LIGHTNING FM NORTH


Station Type Date Time Source
NFTF Decoded METAR 2023/02/05 11:00 UTC NOAA

Fua'Amotu, Tonga (NFTF) 21-14S 175-09W 41M
Feb 05, 2023 - 06:00 AM EST / 2023.02.05 1100 UTC
Wind: from the W (270 degrees) at 6 MPH (5 KT):0
Visibility: greater than 7 mile(s):0
Sky conditions: mostly cloudy
Weather: Towering cumulus clouds observed
Temperature: 80 F (27 C)
Dew Point: 75 F (24 C)
Relative Humidity: 83%
Pressure (altimeter): 29.74 in. Hg (1007 hPa)
ob: NFTF 051100Z 27005KT 9999 SCT016TCU BKN120 27/24 Q1007 RMK LIGHTNING FM NORTH
cycle: 11

Station Type Date Time Source
NFTF TAF 2023/02/05 12:06 UTC NOAA

TAF TAF NFTF 051103Z 0512/0612 24006KT 9999 SCT016 BKN100 PROB40
TEMPO 0512/0606 3000 +TSRA BKN015 SCT016CB

Example: see airport list